• Join FlightAware (Why Join?)
  • Login
  • US Flag 
04:20AM EDT


 

Airport Tracker/Info


-or-


 

Live Flight TrackerFlight Track Log ✈ GJS3649 ✈ 06-Jul-2013 ✈ KIAD - KMSP

Flight Track Log - Related Links

Times and Time Zones

All times are in EDT time to prevent confusion due to time zone crossing. See the GJS3649 flight status page for this flight to view local times or setup timezone preferences in your user account.

Time Position Orientation Groundspeed Altitude Reporting Facility
EDT Latitude Longitude Course Direction KTS MPH feet Rate Location/Type
05:16PM 38.9667 -77.5167 311° West 177 204 1,900  Level Potomac TRACON
05:16PM 39.0000 -77.5667 311° West 217 250 3,800 2,040 Climbing Potomac TRACON
05:17PM 39.0667 -77.6000 339° North 272 313 5,800 2,220 Climbing Potomac TRACON
05:19PM 39.1500 -77.6167 351° North 291 335 8,500 2,100 Climbing Potomac TRACON
05:20PM 39.2969 -77.5897 North 322 371 11,900 1,680 Climbing Washington Center
05:21PM 39.3956 -77.5600 13° North 337 388 13,300 1,320 Climbing Washington Center
05:22PM 39.4953 -77.5736 354° North 350 403 14,600 1,320 Climbing Washington Center
05:23PM 39.5244 -77.7008 287° West 296 341 16,000 1,620 Climbing Washington Center
05:24PM 39.5367 -77.8356 277° West 318 366 17,900 1,680 Climbing Washington Center
05:25PM 39.5694 -77.9658 288° West 359 413 19,500 1,500 Climbing Washington Center
05:26PM 39.6064 -78.0939 291° West 378 435 21,000 1,260 Climbing Washington Center
05:28PM 39.6644 -78.2828 292° West 395 455 22,800 1,140 Climbing Cleveland Center
05:29PM 39.7025 -78.4056 292° West 402 463 24,000 1,320 Climbing Cleveland Center
05:30PM 39.7492 -78.5689 290° West 407 468 25,500 1,260 Climbing Cleveland Center
05:31PM 39.7825 -78.6947 289° West 407 468 26,600 1,140 Climbing Cleveland Center
05:32PM 39.8222 -78.8342 290° West 407 468 27,800 1,080 Climbing Cleveland Center
05:33PM 39.8661 -78.9764 292° West 407 468 28,800 720 Climbing Cleveland Center
05:34PM 39.9078 -79.1217 291° West 417 480 29,300 480 Climbing Cleveland Center
05:35PM 39.9511 -79.2722 291° West 432 497 29,800 540 Climbing Cleveland Center
05:36PM 40.0069 -79.4175 297° West 443 510 30,400 600 Climbing Cleveland Center
05:37PM 40.0792 -79.5603 304° West 455 524 31,000 600 Climbing Cleveland Center
05:38PM 40.1514 -79.7003 304° West 465 535 31,600 600 Climbing Cleveland Center
05:39PM 40.2211 -79.8381 304° West 470 541 32,200 600 Climbing Cleveland Center
05:40PM 40.2928 -79.9789 304° West 470 541 32,900 600 Climbing Cleveland Center
05:41PM 40.3622 -80.1253 302° West 470 541 33,400 720 Climbing Cleveland Center
05:42PM 40.4336 -80.2667 304° West 476 548 34,400 1,020 Climbing Cleveland Center
05:43PM 40.5153 -80.4192 305° West 476 548 35,500 960 Climbing Cleveland Center
05:44PM 40.5819 -80.5503 304° West 453 521 36,400 900 Climbing Cleveland Center
05:45PM 40.6467 -80.6872 302° West 446 513 37,300 780 Climbing Cleveland Center
05:46PM 40.7194 -80.8158 307° West 441 507 38,000 540 Climbing Cleveland Center
05:47PM 40.8108 -80.9261 318° Northwest 435 501 38,400 540 Climbing Cleveland Center
05:48PM 40.9000 -81.0336 318° Northwest 435 501 39,100 600 Climbing Cleveland Center
05:49PM 40.9831 -81.1250 320° Northwest 435 501 39,700 420 Climbing Cleveland Center
05:50PM 41.0869 -81.2031 330° Northwest 430 495 40,000 120 Climbing Cleveland Center
05:51PM 41.1928 -81.2894 328° Northwest 435 501 40,000  Level Cleveland Center
05:52PM 41.2964 -81.3764 328° Northwest 441 507 40,000  Level Cleveland Center
05:53PM 41.4042 -81.4717 326° Northwest 455 524 40,000  Level Cleveland Center
05:54PM 41.5097 -81.5675 326° Northwest 460 529 40,000  Level Cleveland Center
05:55PM 41.6150 -81.6581 327° Northwest 460 529 40,000  Level Cleveland Center
05:56PM 41.7206 -81.7461 328° Northwest 455 524 40,000  Level Cleveland Center
05:57PM 41.8239 -81.8342 328° Northwest 455 524 40,000  Level Cleveland Center
05:58PM 41.9311 -81.9283 327° Northwest 450 518 40,000  Level Cleveland Center
05:59PM 41.9986 -82.0528 306° West 422 486 40,000  Level Cleveland Center
06:00PM 42.0361 -82.1933 290° West 408 470 40,000  Level Cleveland Center
06:01PM 42.0633 -82.3367 284° West 388 447 40,000  Level Cleveland Center
06:02PM 42.0881 -82.4803 283° West 393 452 40,000  Level Cleveland Center
06:03PM 42.1253 -82.6242 289° West 400 460 40,000  Level Cleveland Center
06:04PM 42.1517 -82.7706 284° West 405 466 40,000  Level Cleveland Center
06:05PM 42.1800 -82.9200 284° West 411 473 40,000  Level Cleveland Center
06:06PM 42.2081 -83.0725 284° West 417 480 40,000  Level Cleveland Center
06:07PM 42.2417 -83.2478 285° West 429 494 40,000  Level Cleveland Center
06:08PM 42.2714 -83.3978 285° West 435 501 40,000  Level Cleveland Center
06:09PM 42.3031 -83.5508 286° West 425 489 40,000  Level Cleveland Center
06:10PM 42.3344 -83.7067 285° West 425 489 40,000  Level Cleveland Center
06:11PM 42.3617 -83.8514 284° West 415 478 40,000  Level Cleveland Center
06:12PM 42.3906 -84.0019 285° West 415 478 40,000  Level Cleveland Center
06:13PM 42.4172 -84.1525 284° West 415 478 40,000  Level Cleveland Center
06:14PM 42.4478 -84.3092 285° West 421 484 40,000  Level Cleveland Center
06:15PM 42.4803 -84.4758 285° West 430 495 40,000  Level Chicago Center
06:16PM 42.5089 -84.6317 284° West 428 493 40,000  Level Chicago Center
06:17PM 42.5383 -84.7878 284° West 429 494 40,000  Level Chicago Center
06:18PM 42.5667 -84.9461 284° West 430 495 40,000  Level Chicago Center
06:19PM 42.6014 -85.1358 284° West 433 498 40,000 -300 Level Chicago Center
06:20PM 42.6297 -85.2947 284° West 433 498 39,400 -840 Descending Chicago Center
06:21PM 42.6733 -85.4439 292° West 430 495 38,400 -1,020 Descending Chicago Center
06:22PM 42.7231 -85.5917 295° West 429 494 37,400 -1,020 Descending Chicago Center
06:23PM 42.7728 -85.7428 294° West 440 506 36,400 -720 Descending Chicago Center
06:24PM 42.8242 -85.9025 294° West 455 524 36,000 -240 Descending Chicago Center
06:25PM 42.8778 -86.0650 294° West 465 535 36,000  Level Chicago Center
06:26PM 42.9317 -86.2308 294° West 470 541 36,000  Level Chicago Center
06:27PM 42.9853 -86.3908 295° West 466 536 36,000  Level Chicago Center
06:28PM 43.0372 -86.5461 295° West 448 516 36,000  Level Chicago Center
06:29PM 43.0881 -86.7064 294° West 451 519 36,000  Level Chicago Center
06:30PM 43.1497 -86.9003 294° West 461 531 36,000  Level Chicago Center
06:32PM 43.2028 -87.0647 294° West 476 548 36,000  Level Chicago Center
06:33PM 43.2539 -87.2186 295° West 457 526 36,000  Level Chicago Center
06:34PM 43.3044 -87.3775 294° West 439 505 36,000  Level Chicago Center
06:35PM 43.3514 -87.5331 293° West 439 505 36,000  Level Chicago Center
06:36PM 43.4028 -87.6942 294° West 455 524 36,000  Level Chicago Center
06:37PM 43.4494 -87.8458 293° West 426 490 36,000  Level Chicago Center
06:38PM 43.4969 -88.0028 293° West 438 504 36,000  Level Chicago Center
06:39PM 43.5556 -88.1878 294° West 450 518 36,000  Level Chicago Center
06:40PM 43.6039 -88.3450 293° West 445 512 36,000  Level Chicago Center
06:41PM 43.6514 -88.5003 293° West 445 512 36,000  Level Chicago Center
06:42PM 43.6958 -88.6544 292° West 439 505 36,000 -300 Level Chicago Center
06:43PM 43.7428 -88.8153 292° West 451 519 35,400 -540 Descending Chicago Center
06:44PM 43.7983 -89.0042 292° West 456 525 35,000 -480 Descending Chicago Center
06:45PM 43.8467 -89.1692 292° West 459 528 34,500 -540 Descending Chicago Center
06:46PM 43.8944 -89.3344 292° West 464 534 34,000 -300 Descending Chicago Center
06:47PM 43.9439 -89.5033 292° West 471 542 34,000  Level Chicago Center
06:48PM 43.9925 -89.6719 292° West 471 542 34,000  Level Chicago Center
06:49PM 44.0411 -89.8392 292° West 467 537 34,000  Level Chicago Center
06:50PM 44.0922 -89.9994 294° West 457 526 34,000  Level Chicago Center
06:51PM 44.1847 -90.1586 309° West 453 521 34,000 -60 Level Minneapolis Center
06:52PM 44.2606 -90.2981 307° West 452 520 33,900 -660 Descending Minneapolis Center
06:53PM 44.3383 -90.4364 308° West 453 521 32,700 -1,260 Descending Minneapolis Center
06:54PM 44.4142 -90.5758 307° West 451 519 31,400 -1,560 Descending Minneapolis Center
06:55PM 44.5036 -90.7386 308° West 452 520 29,600 -1,680 Descending Minneapolis Center
06:56PM 44.5783 -90.8758 307° West 445 512 28,000 -1,740 Descending Minneapolis Center
06:57PM 44.6522 -91.0125 307° West 429 494 26,100 -1,800 Descending Minneapolis Center
06:58PM 44.7200 -91.1397 307° West 417 480 24,400 -1,680 Descending Minneapolis Center
06:59PM 44.7750 -91.2722 300° West 402 463 22,700 -1,680 Descending Minneapolis Center
07:00PM 44.8144 -91.4161 291° West 396 456 21,000 -1,680 Descending Minneapolis Center
07:01PM 44.8517 -91.5547 291° West 388 447 19,300 -1,680 Descending Minneapolis Center
07:02PM 44.8883 -91.6914 291° West 378 435 17,600 -1,680 Descending Minneapolis Center
07:03PM 44.9250 -91.8258 291° West 372 428 15,900 -1,860 Descending Minneapolis Center
07:04PM 44.9672 -91.9811 291° West 353 406 13,900 -1,740 Descending Minneapolis Center
07:05PM 45.0022 -92.1117 291° West 354 407 12,400 -1,380 Descending Minneapolis Center
07:06PM 45.0353 -92.2358 291° West 340 391 11,100 -660 Descending Minneapolis Center
07:08PM 45.0372 -92.3664 271° West 344 396 11,100 -60 Level Minneapolis Center
07:09PM 45.0175 -92.4958 258° West 337 388 11,000 -60 Descending Minneapolis Center
07:10PM 44.9967 -92.6244 257° West 337 388 11,000  Level Minneapolis Center
07:11PM 44.9711 -92.7792 257° West 338 389 11,000 -480 Level Minneapolis Center
07:12PM 44.9531 -92.8917 257° West 294 338 10,100 -1,200 Descending Minneapolis Center
07:13PM 44.9369 -92.9917 257° West 264 304 8,600 -1,080 Descending Minneapolis Center
07:14PM 44.9369 -93.0817 270° West 240 276 8,000 -540 Descending Minneapolis Center
07:15PM 44.9767 -93.1550 307° West 237 273 7,600 -960 Descending Minneapolis Center
07:16PM 45.0164 -93.2297 307° West 239 275 6,100 -1,320 Descending Minneapolis Center
07:17PM 45.0631 -93.3181 307° West 237 273 4,900 -1,080 Descending Minneapolis Center
07:18PM 45.0764 -93.3850 286° West 188 216 4,000 -480 Descending Minneapolis Center
07:19PM 45.0336 -93.3911 186° South 160 184 4,000 -360 Level Minneapolis Center
07:20PM 44.9936 -93.3631 154° Southeast 163 188 3,300 -540 Descending Minneapolis Center
07:21PM 44.9572 -93.3503 166° South 129 148 3,000 -420 Descending Minneapolis Center
07:22PM 44.9333 -93.3133 132° Southeast 135 155 2,500 -660 Descending Minneapolis Center
07:23PM 44.9144 -93.2700 122° Southeast 130 150 1,700 -780 Descending Minneapolis Center
07:25PM 44.8820 -93.2218 245° Southwest  Level Estimated
07:32PM 44.8820 -93.2218 245° Southwest  Level Estimated